Time;durP1;ratioP1;P1;durP2;ratioP2;P2;SDS_P1;SDS_P2;PMS_P1;PMS_P2;Temp;Humidity;BMP_temperature;BMP_pressure;BME280_temperature;BME280_humidity;BME280_pressure;Samples;Min_cycle;Max_cycle;Signal;HPM_P1;HPM_P2
2023/10/05 00:00:58;;;;;;;10.85;5.32;;;;;;;13.30;89.84;102205.38;5072049;28;20047;-58
2023/10/05 00:03:23;;;;;;;13.82;5.80;;;;;;;13.28;89.94;102199.25;5072035;28;20016;-58
2023/10/05 00:05:49;;;;;;;9.93;6.03;;;;;;;13.27;90.43;102202.88;5071069;28;20540;-58
2023/10/05 00:08:14;;;;;;;13.18;5.68;;;;;;;13.34;90.37;102214.97;5069989;28;20035;-58
2023/10/05 00:10:40;;;;;;;11.75;5.72;;;;;;;13.31;90.19;102207.09;5071627;28;20110;-58
2023/10/05 00:13:07;;;;;;;13.98;5.57;;;;;;;13.26;90.52;102204.66;5070510;28;20044;-58
2023/10/05 00:15:36;;;;;;;13.63;5.82;;;;;;;13.24;90.85;102205.69;5070651;28;20078;-58
2023/10/05 00:18:04;;;;;;;15.65;5.70;;;;;;;13.19;90.65;102208.56;5071504;28;20090;-58
2023/10/05 00:20:38;;;;;;;11.25;5.68;;;;;;;13.27;90.14;102218.91;5071678;28;20033;-58
2023/10/05 00:23:08;;;;;;;10.98;5.38;;;;;;;13.18;90.74;102210.38;5070394;28;20043;-58
2023/10/05 00:25:33;;;;;;;12.85;5.97;;;;;;;13.27;90.40;102217.09;5070084;28;20078;-58
2023/10/05 00:28:03;;;;;;;9.55;5.13;;;;;;;13.23;90.81;102209.28;5071427;28;20032;-58
2023/10/05 00:30:29;;;;;;;11.68;5.53;;;;;;;13.23;90.82;102214.63;5070333;28;20568;-58
2023/10/05 00:32:59;;;;;;;7.70;3.75;;;;;;;13.32;90.49;102228.38;5070180;28;20090;-58
2023/10/05 00:35:28;;;;;;;11.45;5.15;;;;;;;13.19;91.29;102221.94;5071505;28;20546;-58
2023/10/05 00:38:01;;;;;;;6.90;3.35;;;;;;;13.29;90.71;102225.00;5069653;28;20032;-58
2023/10/05 00:40:36;;;;;;;9.73;6.28;;;;;;;13.21;90.99;102224.50;5069977;28;20024;-58
2023/10/05 00:45:47;;;;;;;11.82;6.15;;;;;;;13.12;91.50;102231.22;5071491;28;20103;-58
2023/10/05 00:48:34;;;;;;;15.32;5.97;;;;;;;13.12;91.58;102237.41;5071141;28;20035;-58
2023/10/05 00:51:17;;;;;;;7.07;3.20;;;;;;;13.25;91.51;102237.69;5071198;28;20024;-59
2023/10/05 00:53:46;;;;;;;12.20;6.22;;;;;;;13.14;91.90;102229.31;5086484;28;20024;-58
2023/10/05 00:56:12;;;;;;;3.25;2.92;;;;;;;13.22;91.43;102227.13;5071806;28;20387;-58
2023/10/05 00:58:47;;;;;;;15.73;6.07;;;;;;;13.05;91.83;102225.31;5069669;28;20031;-58
2023/10/05 01:01:23;;;;;;;8.77;5.82;;;;;;;13.13;91.83;102223.13;5071678;28;20031;-58
2023/10/05 01:06:40;;;;;;;15.70;6.05;;;;;;;13.17;91.75;102232.69;5071522;28;20078;-58
2023/10/05 01:10:21;;;;;;;13.32;5.70;;;;;;;13.15;92.13;102244.41;5070324;28;20032;-58
2023/10/05 01:12:15;;;;;;;11.05;5.07;;;;;;;13.14;91.93;102240.00;5061823;28;20064;-58
2023/10/05 01:14:52;;;;;;;13.65;5.78;;;;;;;13.08;92.47;102243.00;5071303;28;20060;-58
2023/10/05 01:17:22;;;;;;;8.90;4.90;;;;;;;13.03;92.58;102231.66;5072715;28;20102;-58
2023/10/05 01:19:58;;;;;;;13.18;6.15;;;;;;;12.99;92.92;102225.63;5074800;28;20091;-58
2023/10/05 01:22:39;;;;;;;14.30;5.03;;;;;;;13.02;93.06;102237.97;5073645;28;20089;-58
2023/10/05 01:25:08;;;;;;;10.63;5.95;;;;;;;13.01;92.92;102231.75;5073378;28;20032;-58
2023/10/05 01:27:35;;;;;;;12.32;5.30;;;;;;;13.01;93.15;102225.56;5075173;28;20024;-58
2023/10/05 01:30:03;;;;;;;4.47;2.60;;;;;;;13.15;92.27;102228.38;5074488;28;20464;-58
2023/10/05 01:32:31;;;;;;;9.85;5.78;;;;;;;13.04;92.94;102217.38;5074776;28;20021;-58
2023/10/05 01:34:56;;;;;;;9.32;5.40;;;;;;;12.92;93.02;102219.75;5074406;28;20040;-58
2023/10/05 01:37:30;;;;;;;13.15;5.80;;;;;;;13.02;93.23;102219.25;5073404;28;20036;-58
2023/10/05 01:39:55;;;;;;;11.52;5.95;;;;;;;12.97;93.41;102227.53;5072380;28;20035;-58
2023/10/05 01:42:23;;;;;;;11.73;5.85;;;;;;;13.01;93.16;102231.75;5074514;28;20021;-58
2023/10/05 01:44:49;;;;;;;9.85;5.88;;;;;;;12.99;93.59;102225.63;5074786;28;20025;-58
2023/10/05 01:47:16;;;;;;;10.15;5.82;;;;;;;12.95;93.41;102214.25;5073235;28;20056;-58
2023/10/05 01:49:49;;;;;;;11.57;5.75;;;;;;;12.96;93.90;102221.31;5073744;28;20028;-58
2023/10/05 01:52:17;;;;;;;8.32;5.45;;;;;;;12.98;93.71;102217.72;5074431;28;20119;-58
2023/10/05 01:54:44;;;;;;;11.70;6.25;;;;;;;12.99;93.42;102220.28;5073970;28;20058;-58
2023/10/05 01:57:12;;;;;;;3.45;2.55;;;;;;;13.10;93.01;102217.94;5074578;28;20104;-58
2023/10/05 01:59:39;;;;;;;11.10;6.20;;;;;;;12.97;93.46;102214.19;5073961;28;20455;-58
2023/10/05 02:02:09;;;;;;;12.23;6.25;;;;;;;12.92;93.58;102214.41;5072971;28;20460;-58
2023/10/05 02:04:38;;;;;;;9.52;5.65;;;;;;;12.95;93.81;102216.91;5074141;28;20020;-58
2023/10/05 02:07:04;;;;;;;10.32;3.30;;;;;;;13.03;93.46;102220.97;5074502;28;20480;-58
2023/10/05 02:09:30;;;;;;;12.23;5.40;;;;;;;12.86;93.86;102209.38;5073507;28;20031;-59
2023/10/05 02:12:01;;;;;;;10.30;5.88;;;;;;;12.90;93.91;102216.28;5072865;28;20480;-58
2023/10/05 02:14:30;;;;;;;11.30;5.95;;;;;;;12.86;94.15;102216.53;5073992;28;20048;-58
2023/10/05 02:16:57;;;;;;;12.50;6.05;;;;;;;12.85;94.27;102206.78;5074123;28;20038;-58
2023/10/05 02:19:22;;;;;;;6.10;3.08;;;;;;;12.97;93.58;102208.84;5073248;28;20024;-58
2023/10/05 02:21:52;;;;;;;13.13;6.10;;;;;;;12.87;94.24;102205.75;5073827;28;20036;-58
2023/10/05 02:24:22;;;;;;;11.65;5.90;;;;;;;12.86;94.07;102209.38;5073550;28;20016;-58
2023/10/05 02:29:26;;;;;;;10.70;5.65;;;;;;;12.79;94.48;102207.94;5072396;28;20032;-58
2023/10/05 02:32:04;;;;;;;10.13;6.03;;;;;;;12.83;94.67;102189.97;5072532;28;20044;-58
2023/10/05 02:34:35;;;;;;;7.47;3.78;;;;;;;12.92;94.13;102203.72;5073557;28;20471;-58
2023/10/05 02:37:01;;;;;;;10.77;5.97;;;;;;;12.88;94.23;102204.81;5073764;28;20028;-58
2023/10/05 02:39:26;;;;;;;12.02;5.97;;;;;;;12.82;94.56;102196.25;5072898;28;20035;-58
2023/10/05 02:41:54;;;;;;;10.88;6.05;;;;;;;12.79;94.41;102197.25;5073373;28;20471;-58
2023/10/05 02:44:30;;;;;;;11.70;5.88;;;;;;;12.78;94.75;102190.19;5072124;28;20044;-58
2023/10/05 02:46:55;;;;;;;11.93;5.97;;;;;;;12.79;94.29;102189.25;5073399;28;20027;-58
2023/10/05 02:49:24;;;;;;;12.07;5.53;;;;;;;12.81;94.20;102191.84;5071285;28;20024;-58
2023/10/05 02:51:52;;;;;;;11.90;5.95;;;;;;;12.76;94.41;102194.75;5072896;28;20024;-58
2023/10/05 02:54:24;;;;;;;11.70;5.65;;;;;;;12.69;94.16;102177.31;5072406;28;20095;-59
2023/10/05 02:56:53;;;;;;;9.27;5.30;;;;;;;12.63;94.98;102175.81;5073208;28;20020;-58
2023/10/05 02:59:21;;;;;;;6.30;3.20;;;;;;;12.81;94.29;102197.19;5070961;28;20030;-58
2023/10/05 03:01:48;;;;;;;7.15;3.38;;;;;;;12.80;94.09;102198.16;5071736;28;20020;-58
2023/10/05 03:06:39;;;;;;;12.63;5.80;;;;;;;12.63;95.02;102194.50;5073333;28;20029;-58
2023/10/05 03:09:08;;;;;;;9.35;5.60;;;;;;;12.54;95.37;102178.09;5072265;28;20028;-58
2023/10/05 03:11:40;;;;;;;11.40;5.95;;;;;;;12.61;95.58;102183.03;5073045;28;20086;-58
2023/10/05 03:14:09;;;;;;;10.40;5.63;;;;;;;12.64;95.06;102174.00;5072816;28;20445;-58
2023/10/05 03:16:43;;;;;;;9.30;3.65;;;;;;;12.67;95.01;102174.72;5072897;28;20031;-58
2023/10/05 03:19:13;;;;;;;11.13;6.35;;;;;;;12.56;95.37;102179.75;5072876;28;20056;-58
2023/10/05 03:21:38;;;;;;;15.63;6.70;;;;;;;12.55;95.42;102174.47;5071800;28;20024;-58
2023/10/05 03:24:04;;;;;;;4.65;3.20;;;;;;;12.67;94.99;102180.06;5070969;28;20077;-58
2023/10/05 03:26:29;;;;;;;5.43;3.30;;;;;;;12.60;94.95;102175.97;5071598;28;20066;-58
2023/10/05 03:28:54;;;;;;;15.65;6.68;;;;;;;12.55;95.34;102171.81;5072215;28;20050;-58
2023/10/05 03:31:32;;;;;;;13.88;6.68;;;;;;;12.45;96.02;102179.41;5072407;28;20056;-58
2023/10/05 03:34:00;;;;;;;8.75;6.15;;;;;;;12.48;96.02;102169.44;5072429;28;20031;-58
2023/10/05 03:36:32;;;;;;;13.68;7.05;;;;;;;12.49;95.83;102172.97;5071467;28;20024;-58
2023/10/05 03:38:57;;;;;;;10.30;6.50;;;;;;;12.48;95.73;102169.44;5071595;28;20028;-58
2023/10/05 03:41:26;;;;;;;8.73;2.70;;;;;;;12.53;95.65;102171.91;5072516;28;20479;-58
2023/10/05 03:43:55;;;;;;;11.37;6.07;;;;;;;12.43;95.95;102174.16;5072230;28;20028;-58
2023/10/05 03:46:20;;;;;;;11.43;6.35;;;;;;;12.40;96.06;102165.44;5070851;28;20028;-58
2023/10/05 03:48:46;;;;;;;10.32;6.60;;;;;;;12.38;96.44;102161.97;5071850;28;20027;-59
2023/10/05 03:51:18;;;;;;;13.38;7.35;;;;;;;12.37;96.60;102176.25;5070694;28;20501;-58
2023/10/05 03:53:51;;;;;;;11.95;3.03;;;;;;;12.55;95.74;102191.34;5071616;28;20486;-58
2023/10/05 03:56:20;;;;;;;13.88;6.30;;;;;;;12.39;96.40;102180.59;5072201;28;20036;-58
2023/10/05 03:58:48;;;;;;;9.98;6.18;;;;;;;12.43;96.56;102189.28;5071570;28;20039;-58
2023/10/05 04:01:15;;;;;;;5.53;2.80;;;;;;;12.50;96.20;102180.06;5071810;28;20016;-59
2023/10/05 04:03:46;;;;;;;10.38;2.50;;;;;;;12.46;96.02;102171.31;5071903;28;20402;-58
2023/10/05 04:06:20;;;;;;;11.75;6.25;;;;;;;12.34;96.80;102165.75;5072254;28;20024;-58
2023/10/05 04:08:48;;;;;;;9.30;6.30;;;;;;;12.30;97.06;102161.50;5071228;28;20035;-58
2023/10/05 04:11:15;;;;;;;14.10;6.50;;;;;;;12.33;96.81;102164.88;5070679;28;20063;-58
2023/10/05 04:13:40;;;;;;;12.95;6.38;;;;;;;12.19;97.23;102152.22;5071844;28;20502;-58
2023/10/05 04:16:09;;;;;;;5.95;3.20;;;;;;;12.36;96.91;102169.22;5072003;28;20030;-58
2023/10/05 04:18:35;;;;;;;7.75;6.07;;;;;;;12.21;97.56;102165.50;5071625;28;20073;-58
2023/10/05 04:21:00;;;;;;;10.30;6.45;;;;;;;12.23;97.48;102167.13;5071889;28;20028;-58
2023/10/05 04:23:26;;;;;;;11.77;6.40;;;;;;;12.18;97.73;102173.66;5071938;28;20099;-58
2023/10/05 04:25:54;;;;;;;11.43;6.57;;;;;;;12.17;98.00;102169.22;5071304;28;20028;-58
2023/10/05 04:28:39;;;;;;;11.73;6.35;;;;;;;12.19;98.11;102170.88;5071823;28;20506;-58
2023/10/05 04:31:14;;;;;;;9.40;6.53;;;;;;;12.14;98.15;102164.03;5070489;28;20399;-58
2023/10/05 04:33:42;;;;;;;13.70;6.80;;;;;;;12.18;98.21;102171.84;5071886;28;20024;-58
2023/10/05 04:36:07;;;;;;;8.15;2.83;;;;;;;12.23;97.75;102164.44;5071883;28;20020;-58
2023/10/05 04:38:36;;;;;;;12.90;6.68;;;;;;;12.19;97.82;102167.34;5070847;28;20055;-58
2023/10/05 04:41:01;;;;;;;10.43;3.50;;;;;;;12.28;97.61;102174.91;5070406;28;20020;-58
2023/10/05 04:43:27;;;;;;;12.65;7.05;;;;;;;12.14;98.27;102172.03;5071487;28;20020;-58
2023/10/05 04:45:52;;;;;;;20.30;3.65;;;;;;;12.26;98.02;102180.34;5071511;28;20025;-58
2023/10/05 04:48:18;;;;;;;6.22;3.03;;;;;;;12.28;97.59;102172.25;5069936;28;20050;-58
2023/10/05 04:50:47;;;;;;;13.93;7.57;;;;;;;12.21;98.44;102168.16;5071376;28;20071;-58
2023/10/05 04:53:15;;;;;;;14.48;7.45;;;;;;;12.12;98.59;102177.47;5074350;28;20020;-58
2023/10/05 04:55:42;;;;;;;18.02;7.60;;;;;;;12.14;98.95;102172.03;5073990;28;20098;-58
2023/10/05 04:58:20;;;;;;;16.50;8.13;;;;;;;12.03;99.08;102159.25;5073820;28;20091;-58
2023/10/05 05:03:34;;;;;;;10.90;7.13;;;;;;;12.12;99.21;102169.47;5075061;28;20510;-58
2023/10/05 05:06:13;;;;;;;9.60;6.75;;;;;;;12.10;99.59;102163.34;5075386;28;20029;-58
2023/10/05 05:08:41;;;;;;;15.30;6.75;;;;;;;12.22;99.29;102164.53;5074583;28;20024;-58
2023/10/05 05:11:18;;;;;;;13.45;7.55;;;;;;;12.11;99.48;102159.72;5073930;28;20491;-58
2023/10/05 05:13:49;;;;;;;11.07;3.15;;;;;;;12.25;98.84;102172.38;5073216;28;20579;-58
2023/10/05 05:16:17;;;;;;;6.60;4.57;;;;;;;12.24;98.56;102173.34;5074230;28;20021;-58
2023/10/05 05:18:43;;;;;;;10.05;3.80;;;;;;;12.31;98.59;102181.91;5075201;28;20099;-58
2023/10/05 05:21:11;;;;;;;13.27;7.55;;;;;;;12.20;98.96;102174.41;5074153;28;20025;-58
2023/10/05 05:23:37;;;;;;;15.13;7.07;;;;;;;12.21;99.34;102177.03;5074372;28;20077;-58
2023/10/05 05:26:03;;;;;;;5.28;3.28;;;;;;;12.30;99.24;102188.19;5074903;28;20112;-58
2023/10/05 05:28:30;;;;;;;14.45;7.30;;;;;;;12.18;99.43;102179.84;5074597;28;20024;-58
2023/10/05 05:30:55;;;;;;;9.25;3.40;;;;;;;12.28;99.05;102191.78;5073655;28;20115;-58
2023/10/05 05:33:20;;;;;;;5.93;3.67;;;;;;;12.28;98.89;102186.44;5074527;28;20089;-58
2023/10/05 05:35:49;;;;;;;11.63;7.22;;;;;;;12.20;99.55;102188.59;5074371;28;20024;-58
2023/10/05 05:38:18;;;;;;;13.68;6.18;;;;;;;12.18;99.51;102190.50;5074678;28;20586;-58
2023/10/05 05:40:44;;;;;;;14.60;6.80;;;;;;;12.17;99.49;102191.41;5074371;28;20027;-58
2023/10/05 05:43:11;;;;;;;11.10;6.88;;;;;;;12.18;100.00;102189.66;5074499;28;20278;-58
2023/10/05 05:45:43;;;;;;;14.43;7.20;;;;;;;12.19;100.00;102192.22;5074668;28;20055;-58
2023/10/05 05:48:10;;;;;;;9.55;4.15;;;;;;;12.27;99.37;102190.06;5074516;28;20028;-58
2023/10/05 05:50:39;;;;;;;13.80;6.60;;;;;;;12.18;99.97;102193.16;5073448;28;20016;-58
2023/10/05 05:53:06;;;;;;;14.73;7.38;;;;;;;12.16;100.00;102192.38;5074439;28;20021;-58
2023/10/05 05:55:32;;;;;;;11.88;6.43;;;;;;;12.24;99.98;102192.88;5073557;28;20073;-58
2023/10/05 05:57:59;;;;;;;7.95;3.38;;;;;;;12.32;99.98;102192.47;5074088;28;20104;-58
2023/10/05 06:00:25;;;;;;;11.95;7.05;;;;;;;12.24;100.00;102197.34;5073731;28;20016;-58
2023/10/05 06:02:50;;;;;;;13.80;6.18;;;;;;;12.23;100.00;102188.47;5072542;28;20047;-58
2023/10/05 06:05:16;;;;;;;10.90;6.95;;;;;;;12.28;100.00;102189.09;5073990;28;20021;-58
2023/10/05 06:07:43;;;;;;;8.52;3.55;;;;;;;12.37;99.77;102193.13;5074172;28;20480;-58
2023/10/05 06:10:12;;;;;;;15.00;6.68;;;;;;;12.31;99.81;102190.75;5071590;28;20034;-58
2023/10/05 06:12:41;;;;;;;;;;;;;;;12.44;99.08;102202.56;5072706;28;20399;-57
2023/10/05 06:15:08;;;;;;;10.63;3.00;;;;;;;12.44;99.62;102197.25;5073842;28;20007;-58
2023/10/05 06:17:35;;;;;;;12.38;5.97;;;;;;;12.36;99.62;102209.22;5073892;28;20024;-58
2023/10/05 06:20:04;;;;;;;14.00;7.25;;;;;;;12.30;99.80;102210.38;5073488;28;20426;-58
2023/10/05 06:22:30;;;;;;;8.63;3.40;;;;;;;12.44;99.07;102207.91;5074029;28;20020;-58
2023/10/05 06:24:58;;;;;;;12.07;5.97;;;;;;;12.41;99.60;102220.53;5073027;28;20103;-58
2023/10/05 06:27:24;;;;;;;5.43;3.75;;;;;;;12.49;99.65;102219.19;5074122;28;20024;-58
2023/10/05 06:29:49;;;;;;;16.55;5.22;;;;;;;12.56;99.22;102229.56;5073309;28;20625;-58
2023/10/05 06:32:14;;;;;;;13.80;6.40;;;;;;;12.51;99.66;102227.16;5073803;28;20025;-58
2023/10/05 06:34:40;;;;;;;7.75;3.50;;;;;;;12.61;99.19;102232.88;5073758;28;20056;-58
2023/10/05 06:37:05;;;;;;;19.00;6.72;;;;;;;12.54;99.69;102235.00;5072340;28;20472;-58
2023/10/05 06:39:31;;;;;;;15.45;6.65;;;;;;;12.56;99.36;102233.13;5071029;28;20028;-59
2023/10/05 06:41:59;;;;;;;16.95;6.38;;;;;;;12.49;99.46;102226.34;5072348;28;20028;-58
2023/10/05 06:44:24;;;;;;;9.30;3.72;;;;;;;12.65;98.87;102238.00;5073556;28;20070;-58
2023/10/05 06:46:50;;;;;;;7.25;3.67;;;;;;;12.64;98.89;102232.75;5073644;28;20028;-58
2023/10/05 06:49:16;;;;;;;10.23;6.18;;;;;;;12.68;99.03;102239.66;5071652;28;20017;-58
2023/10/05 06:51:45;;;;;;;13.93;6.22;;;;;;;12.63;99.15;102247.03;5073404;28;20030;-58
2023/10/05 06:54:11;;;;;;;8.60;3.75;;;;;;;12.73;99.10;102250.97;5071438;28;20389;-58
2023/10/05 06:56:37;;;;;;;14.95;6.65;;;;;;;12.59;99.16;102243.66;5072062;28;20031;-58
2023/10/05 06:59:04;;;;;;;12.88;6.00;;;;;;;12.68;99.14;102251.22;5073093;28;20074;-58
2023/10/05 07:01:34;;;;;;;14.73;6.93;;;;;;;12.68;99.06;102247.69;5073249;28;20108;-58
2023/10/05 07:04:00;;;;;;;12.43;6.15;;;;;;;12.73;99.06;102266.97;5072816;28;20479;-58
2023/10/05 07:06:29;;;;;;;13.65;6.65;;;;;;;12.73;99.07;102270.53;5072854;28;20020;-58
2023/10/05 07:08:56;;;;;;;8.02;3.55;;;;;;;12.84;98.39;102263.78;5071925;28;20425;-58
2023/10/05 07:11:22;;;;;;;9.20;6.65;;;;;;;12.79;98.49;102271.16;5071620;28;20025;-58
2023/10/05 07:13:48;;;;;;;13.05;6.18;;;;;;;12.80;98.39;102272.91;5071932;28;20123;-59
2023/10/05 07:16:14;;;;;;;12.65;6.38;;;;;;;12.82;98.63;102277.19;5072677;28;20107;-58
2023/10/05 07:18:40;;;;;;;11.43;6.22;;;;;;;12.87;98.57;102277.00;5071270;28;20032;-58
2023/10/05 07:21:08;;;;;;;12.10;3.58;;;;;;;12.99;97.97;102283.53;5072393;28;20024;-58
2023/10/05 07:23:36;;;;;;;12.18;6.65;;;;;;;12.91;98.26;102276.78;5071857;28;20024;-58
2023/10/05 07:26:03;;;;;;;12.98;6.38;;;;;;;12.95;98.05;102278.34;5072411;28;20020;-58
2023/10/05 07:28:32;;;;;;;18.13;6.57;;;;;;;13.01;97.84;102290.53;5054454;28;20021;-59
2023/10/05 07:30:59;;;;;;;15.63;4.32;;;;;;;13.15;97.17;102295.19;5071252;28;20024;-58
2023/10/05 07:33:25;;;;;;;4.10;3.00;;;;;;;13.24;97.05;102296.53;5072378;28;20027;-58
2023/10/05 07:35:50;;;;;;;10.27;4.38;;;;;;;13.22;96.96;102301.06;5072302;28;20021;-59
2023/10/05 07:38:16;;;;;;;14.70;6.75;;;;;;;13.12;97.08;102301.53;5071825;28;20363;-58
2023/10/05 07:40:42;;;;;;;8.68;3.85;;;;;;;13.21;96.64;102302.88;5071767;28;20039;-58
2023/10/05 07:43:08;;;;;;;15.02;6.63;;;;;;;13.21;96.72;102305.56;5072259;28;20066;-58
2023/10/05 07:45:33;;;;;;;12.55;6.00;;;;;;;13.23;97.12;102310.81;5072368;28;20035;-58
2023/10/05 07:48:00;;;;;;;14.25;6.70;;;;;;;13.24;96.96;102315.22;5070863;28;20020;-58
2023/10/05 07:50:28;;;;;;;16.00;7.10;;;;;;;13.28;97.39;102312.34;5071635;28;20024;-58
2023/10/05 07:52:57;;;;;;;15.35;6.50;;;;;;;13.30;96.63;102313.13;5071716;28;20035;-58
2023/10/05 07:55:23;;;;;;;4.88;3.53;;;;;;;13.44;96.52;102319.56;5071769;28;20391;-58
2023/10/05 07:57:48;;;;;;;11.40;7.15;;;;;;;13.46;95.54;102320.34;5071958;28;20024;-58
2023/10/05 08:00:14;;;;;;;12.63;6.55;;;;;;;13.55;95.86;102314.53;5071794;28;20056;-58
2023/10/05 08:02:40;;;;;;;13.10;7.30;;;;;;;13.62;95.16;102319.47;5072239;28;20074;-58
2023/10/05 08:05:07;;;;;;;16.92;6.82;;;;;;;13.63;94.61;102323.00;5071786;28;20085;-58
2023/10/05 08:07:32;;;;;;;14.15;6.40;;;;;;;13.66;94.15;102325.53;5071683;28;20434;-58
2023/10/05 08:09:59;;;;;;;13.43;6.72;;;;;;;13.67;93.98;102321.03;5071299;28;20040;-58
2023/10/05 08:12:27;;;;;;;14.90;7.25;;;;;;;13.68;93.93;102320.09;5070371;28;20066;-58
2023/10/05 08:14:54;;;;;;;15.93;6.80;;;;;;;13.78;94.77;102326.69;5071432;28;20086;-58
2023/10/05 08:17:22;;;;;;;14.82;6.47;;;;;;;13.91;94.60;102326.91;5071542;28;20023;-58
2023/10/05 08:19:48;;;;;;;13.43;6.57;;;;;;;13.97;93.41;102335.47;5071195;28;20446;-58
2023/10/05 08:22:16;;;;;;;13.55;5.85;;;;;;;14.08;92.55;102343.78;5071374;28;20109;-58
2023/10/05 08:24:42;;;;;;;15.25;7.00;;;;;;;14.15;92.88;102348.78;5071230;28;20032;-58
2023/10/05 08:27:13;;;;;;;10.80;6.03;;;;;;;14.12;91.70;102347.16;5069402;28;20476;-58
2023/10/05 08:29:42;;;;;;;13.98;5.97;;;;;;;14.12;91.36;102347.16;5071359;28;20055;-58
2023/10/05 08:32:07;;;;;;;14.63;6.30;;;;;;;14.16;91.37;102345.19;5069990;28;20016;-58
2023/10/05 08:34:33;;;;;;;13.48;6.63;;;;;;;14.11;91.23;102341.88;5071132;28;20120;-58
2023/10/05 08:37:01;;;;;;;13.98;6.53;;;;;;;14.12;91.80;102343.59;5070024;28;20040;-58
2023/10/05 08:39:27;;;;;;;12.87;6.93;;;;;;;14.20;92.37;102347.59;5071249;28;20372;-58
2023/10/05 08:42:06;;;;;;;20.35;6.03;;;;;;;14.22;90.84;102351.06;5070271;28;20089;-58
2023/10/05 08:44:36;;;;;;;11.25;6.00;;;;;;;14.24;90.94;102359.88;5070949;28;20085;-58
2023/10/05 08:47:05;;;;;;;10.55;5.43;;;;;;;14.28;90.42;102364.09;5071596;28;20427;-58
2023/10/05 08:49:33;;;;;;;13.55;5.47;;;;;;;14.30;89.89;102362.22;5065340;28;20032;-58
2023/10/05 08:51:59;;;;;;;11.98;6.03;;;;;;;14.36;90.29;102357.50;5071258;28;20047;-58
2023/10/05 08:54:28;;;;;;;13.05;6.45;;;;;;;14.34;90.34;102370.94;5070655;28;20056;-58
2023/10/05 08:56:59;;;;;;;12.43;5.60;;;;;;;14.35;90.37;102361.09;5071327;28;20028;-58
2023/10/05 08:59:26;;;;;;;12.38;5.35;;;;;;;14.44;90.69;102371.28;5071377;28;20024;-58
2023/10/05 09:02:01;;;;;;;14.05;5.60;;;;;;;14.49;90.52;102378.13;5071302;28;20032;-58
2023/10/05 09:04:43;;;;;;;10.45;5.85;;;;;;;14.57;89.72;102372.38;5070968;28;20023;-58
2023/10/05 09:07:08;;;;;;;11.93;5.97;;;;;;;14.63;88.64;102381.91;5070213;28;20025;-58
2023/10/05 09:09:54;;;;;;;16.80;5.57;;;;;;;14.56;89.07;102375.13;5070653;28;20097;-58
2023/10/05 09:12:37;;;;;;;12.18;6.20;;;;;;;14.54;88.93;102378.78;5070048;28;20052;-59
2023/10/05 09:15:27;;;;;;;13.95;5.65;;;;;;;14.68;88.79;102403.94;5070598;28;20484;-58
2023/10/05 09:17:58;;;;;;;13.13;5.25;;;;;;;14.70;88.96;102408.22;5070597;28;20133;-58
2023/10/05 09:20:31;;;;;;;17.40;6.25;;;;;;;14.75;88.84;102416.03;5070829;28;20035;-58
2023/10/05 09:23:00;;;;;;;19.63;3.50;;;;;;;14.87;88.15;102406.44;5069677;28;20049;-58
2023/10/05 09:25:31;;;;;;;16.80;5.18;;;;;;;14.83;87.67;102416.47;5068934;28;20028;-58
2023/10/05 09:27:59;;;;;;;24.58;5.78;;;;;;;14.80;87.39;102405.94;5070891;28;20020;-58
2023/10/05 09:30:30;;;;;;;15.30;5.38;;;;;;;14.85;87.83;102413.69;5070770;28;20107;-58
2023/10/05 09:33:06;;;;;;;23.23;6.63;;;;;;;14.91;88.39;102408.00;5069773;28;20040;-58
2023/10/05 09:35:34;;;;;;;19.13;5.05;;;;;;;14.90;87.30;102403.59;5070636;28;20029;-58
2023/10/05 09:38:00;;;;;;;12.40;5.15;;;;;;;14.97;87.81;102413.00;5071228;28;20047;-58
2023/10/05 09:40:29;;;;;;;10.00;5.20;;;;;;;15.02;88.12;102402.03;5072903;28;20028;-58
2023/10/05 09:43:00;;;;;;;9.10;3.47;;;;;;;15.16;86.66;102405.66;5056441;28;20493;-58
2023/10/05 09:45:29;;;;;;;10.82;4.93;;;;;;;15.11;86.69;102409.53;5074324;28;20039;-58
2023/10/05 09:48:00;;;;;;;16.17;5.90;;;;;;;15.08;86.55;102405.22;5106799;28;20016;-58
2023/10/05 09:50:27;;;;;;;15.73;4.93;;;;;;;15.08;86.62;102410.56;5074607;28;20502;-58
2023/10/05 09:52:53;;;;;;;15.10;5.13;;;;;;;15.12;86.32;102412.16;5074359;28;20025;-58
2023/10/05 09:55:20;;;;;;;12.50;4.97;;;;;;;15.09;85.66;102415.00;5089160;28;20033;-59
2023/10/05 09:57:56;;;;;;;13.15;4.82;;;;;;;15.13;87.01;102413.88;5074206;28;20476;-58
2023/10/05 10:03:04;;;;;;;11.35;5.13;;;;;;;15.21;86.49;102413.44;5074034;28;20051;-58
2023/10/05 10:05:44;;;;;;;13.57;5.55;;;;;;;15.18;85.89;102422.50;5072666;28;20052;-58
2023/10/05 10:08:14;;;;;;;11.82;4.38;;;;;;;15.20;86.74;102417.06;5072982;28;20070;-58
2023/10/05 10:10:51;;;;;;;10.80;4.88;;;;;;;15.18;85.93;102427.03;5072661;28;20021;-58
2023/10/05 10:13:21;;;;;;;8.60;4.65;;;;;;;15.20;85.33;102417.91;5073796;28;20047;-58
2023/10/05 10:15:53;;;;;;;;;;;;;;;15.32;85.86;102419.03;5074165;28;20070;-58
2023/10/05 10:18:21;;;;;;;12.25;4.65;;;;;;;15.16;85.73;102412.84;5071876;28;20347;-59
2023/10/05 10:20:51;;;;;;;13.17;5.53;;;;;;;15.26;86.01;102411.34;5073541;28;20484;-58
2023/10/05 10:23:35;;;;;;;12.40;5.32;;;;;;;15.34;86.40;102417.13;5072453;28;20267;-58
2023/10/05 10:26:16;;;;;;;11.18;5.15;;;;;;;15.42;86.11;102417.56;5073713;28;20039;-58
2023/10/05 10:31:26;;;;;;;13.65;4.90;;;;;;;15.52;84.98;102412.50;5073377;28;20036;-58
2023/10/05 10:33:54;;;;;;;10.07;5.30;;;;;;;15.57;85.23;102397.00;5073601;28;20028;-58
2023/10/05 10:36:46;;;;;;;12.52;4.80;;;;;;;15.74;85.68;102405.91;5072370;28;20028;-58
2023/10/05 10:39:27;;;;;;;8.77;4.72;;;;;;;15.82;84.69;102404.47;5071312;28;20036;-58
2023/10/05 10:42:03;;;;;;;12.38;5.40;;;;;;;16.02;83.39;102405.09;5073516;28;20021;-58
2023/10/05 10:44:28;;;;;;;14.52;5.13;;;;;;;16.18;82.69;102410.38;5073540;28;20024;-59
2023/10/05 10:47:14;;;;;;;12.80;5.40;;;;;;;16.42;81.43;102414.22;5071928;28;20123;-59
2023/10/05 10:49:40;;;;;;;14.50;5.32;;;;;;;16.65;79.85;102418.16;5065697;28;20081;-59
2023/10/05 10:52:16;;;;;;;12.07;5.22;;;;;;;16.96;79.42;102410.84;5072099;28;20056;-59
2023/10/05 10:54:45;;;;;;;13.68;5.57;;;;;;;17.37;77.19;102410.78;5072991;28;20029;-59
2023/10/05 10:57:21;;;;;;;10.05;4.30;;;;;;;17.74;76.20;102405.63;5072227;28;20102;-59
2023/10/05 10:59:47;;;;;;;10.88;4.72;;;;;;;18.20;72.27;102402.44;5053142;28;20028;-59
2023/10/05 11:02:19;;;;;;;10.65;4.88;;;;;;;18.52;69.75;102408.22;5068481;28;20548;-59
2023/10/05 11:04:47;;;;;;;9.40;4.50;;;;;;;18.83;68.75;102408.75;5053103;28;20586;-59
2023/10/05 11:07:13;;;;;;;14.85;5.22;;;;;;;18.94;69.54;102408.81;5053205;28;20139;-59
2023/10/05 11:09:48;;;;;;;11.48;4.95;;;;;;;19.62;67.13;102399.22;5069086;28;20505;-58
2023/10/05 11:12:17;;;;;;;10.40;4.45;;;;;;;19.80;63.60;102409.63;5071339;28;20391;-59
2023/10/05 11:14:43;;;;;;;11.65;4.60;;;;;;;20.10;63.88;102420.72;5072546;28;20044;-59
2023/10/05 11:17:45;;;;;;;9.25;3.67;;;;;;;20.73;64.48;102413.00;5072850;28;20028;-59
2023/10/05 11:20:24;;;;;;;7.53;3.65;;;;;;;20.59;62.20;102416.00;5061527;28;20082;-59
2023/10/05 11:23:01;;;;;;;;;;;;;;;21.12;62.59;102408.03;5072843;28;20471;-59
2023/10/05 11:25:35;;;;;;;9.75;3.85;;;;;;;20.59;59.31;102416.00;5070747;28;19916;-59
2023/10/05 11:28:01;;;;;;;11.75;4.38;;;;;;;20.20;60.01;102402.78;5071235;28;20040;-59
2023/10/05 11:30:41;;;;;;;16.20;5.03;;;;;;;20.30;61.29;102404.78;5072389;28;20024;-59
2023/10/05 11:33:15;;;;;;;9.85;4.35;;;;;;;20.51;58.65;102411.16;5072273;28;20391;-59
2023/10/05 11:35:48;;;;;;;11.50;4.18;;;;;;;21.03;58.67;102406.06;5072100;28;20169;-59
2023/10/05 11:38:16;;;;;;;8.35;4.07;;;;;;;21.84;56.17;102401.09;5072359;28;20032;-59
2023/10/05 11:41:09;;;;;;;10.03;3.43;;;;;;;22.32;56.20;102401.38;5072180;28;20395;-59
2023/10/05 11:43:30;;;;;;;9.90;4.35;;;;;;;22.32;53.02;102408.66;5071525;28;20029;-59
2023/10/05 11:46:16;;;;;;;11.48;4.22;;;;;;;22.45;54.29;102398.47;5071734;28;20043;-59
2023/10/05 11:48:47;;;;;;;9.18;3.92;;;;;;;22.24;53.07;102414.78;5072275;28;20070;-59